sensor_id;sensor_type;location;lat;lon;timestamp;P1;durP1;ratioP1;P2;durP2;ratioP2
58468;SDS011;44257;44.804;10.220;2023-06-14T00:00:58;9.63;;;6.53;;
58468;SDS011;44257;44.804;10.220;2023-06-14T00:03:24;10.85;;;6.95;;
58468;SDS011;44257;44.804;10.220;2023-06-14T00:05:51;13.18;;;8.00;;
58468;SDS011;44257;44.804;10.220;2023-06-14T00:08:17;11.00;;;7.18;;
58468;SDS011;44257;44.804;10.220;2023-06-14T00:10:44;11.07;;;7.43;;
58468;SDS011;44257;44.804;10.220;2023-06-14T00:13:10;12.88;;;7.82;;
58468;SDS011;44257;44.804;10.220;2023-06-14T00:15:36;11.57;;;8.38;;
58468;SDS011;44257;44.804;10.220;2023-06-14T00:18:02;12.35;;;8.27;;
58468;SDS011;44257;44.804;10.220;2023-06-14T00:20:29;11.10;;;7.72;;
58468;SDS011;44257;44.804;10.220;2023-06-14T00:23:01;10.25;;;7.03;;
58468;SDS011;44257;44.804;10.220;2023-06-14T00:25:27;11.18;;;8.15;;
58468;SDS011;44257;44.804;10.220;2023-06-14T00:27:57;16.27;;;8.13;;
58468;SDS011;44257;44.804;10.220;2023-06-14T00:30:23;11.13;;;7.90;;
58468;SDS011;44257;44.804;10.220;2023-06-14T00:32:49;16.13;;;10.40;;
58468;SDS011;44257;44.804;10.220;2023-06-14T00:35:16;15.80;;;11.13;;
58468;SDS011;44257;44.804;10.220;2023-06-14T00:37:42;16.45;;;10.57;;
58468;SDS011;44257;44.804;10.220;2023-06-14T00:40:08;14.30;;;8.02;;
58468;SDS011;44257;44.804;10.220;2023-06-14T00:42:34;12.63;;;7.53;;
58468;SDS011;44257;44.804;10.220;2023-06-14T00:45:00;11.10;;;7.05;;
58468;SDS011;44257;44.804;10.220;2023-06-14T00:47:26;9.95;;;6.78;;
58468;SDS011;44257;44.804;10.220;2023-06-14T00:49:53;12.57;;;8.05;;
58468;SDS011;44257;44.804;10.220;2023-06-14T00:52:20;11.27;;;7.78;;
58468;SDS011;44257;44.804;10.220;2023-06-14T00:54:50;14.07;;;9.25;;
58468;SDS011;44257;44.804;10.220;2023-06-14T00:57:16;14.05;;;9.55;;
58468;SDS011;44257;44.804;10.220;2023-06-14T00:59:43;17.80;;;10.50;;
58468;SDS011;44257;44.804;10.220;2023-06-14T01:02:11;15.13;;;9.35;;
58468;SDS011;44257;44.804;10.220;2023-06-14T01:04:37;13.95;;;9.05;;
58468;SDS011;44257;44.804;10.220;2023-06-14T01:12:15;12.13;;;8.38;;
58468;SDS011;44257;44.804;10.220;2023-06-14T01:14:48;10.68;;;8.23;;
58468;SDS011;44257;44.804;10.220;2023-06-14T01:17:18;12.07;;;7.78;;
58468;SDS011;44257;44.804;10.220;2023-06-14T01:19:47;10.73;;;7.95;;
58468;SDS011;44257;44.804;10.220;2023-06-14T01:22:13;12.27;;;8.27;;
58468;SDS011;44257;44.804;10.220;2023-06-14T01:24:39;11.20;;;7.70;;
58468;SDS011;44257;44.804;10.220;2023-06-14T01:27:10;12.15;;;8.32;;
58468;SDS011;44257;44.804;10.220;2023-06-14T01:29:38;13.90;;;8.20;;
58468;SDS011;44257;44.804;10.220;2023-06-14T01:32:13;12.30;;;7.85;;
58468;SDS011;44257;44.804;10.220;2023-06-14T01:34:40;12.88;;;8.30;;
58468;SDS011;44257;44.804;10.220;2023-06-14T01:37:06;13.30;;;7.80;;
58468;SDS011;44257;44.804;10.220;2023-06-14T01:39:33;11.68;;;7.55;;
58468;SDS011;44257;44.804;10.220;2023-06-14T01:41:59;12.57;;;7.45;;
58468;SDS011;44257;44.804;10.220;2023-06-14T01:44:26;10.75;;;7.55;;
58468;SDS011;44257;44.804;10.220;2023-06-14T01:46:53;12.18;;;8.32;;
58468;SDS011;44257;44.804;10.220;2023-06-14T01:49:21;10.50;;;7.35;;
58468;SDS011;44257;44.804;10.220;2023-06-14T01:51:47;10.98;;;7.68;;
58468;SDS011;44257;44.804;10.220;2023-06-14T01:54:14;10.43;;;6.70;;
58468;SDS011;44257;44.804;10.220;2023-06-14T01:56:40;13.18;;;7.70;;
58468;SDS011;44257;44.804;10.220;2023-06-14T01:59:06;12.20;;;7.07;;
58468;SDS011;44257;44.804;10.220;2023-06-14T02:01:33;10.63;;;7.32;;
58468;SDS011;44257;44.804;10.220;2023-06-14T02:04:00;14.32;;;7.90;;
58468;SDS011;44257;44.804;10.220;2023-06-14T02:06:26;11.43;;;8.02;;
58468;SDS011;44257;44.804;10.220;2023-06-14T02:08:53;12.27;;;7.53;;
58468;SDS011;44257;44.804;10.220;2023-06-14T02:11:19;14.55;;;7.47;;
58468;SDS011;44257;44.804;10.220;2023-06-14T02:13:45;12.23;;;7.70;;
58468;SDS011;44257;44.804;10.220;2023-06-14T02:16:10;11.45;;;7.88;;
58468;SDS011;44257;44.804;10.220;2023-06-14T02:18:37;12.20;;;7.82;;
58468;SDS011;44257;44.804;10.220;2023-06-14T02:21:02;12.98;;;7.47;;
58468;SDS011;44257;44.804;10.220;2023-06-14T02:23:29;11.95;;;7.35;;
58468;SDS011;44257;44.804;10.220;2023-06-14T02:25:58;16.45;;;7.85;;
58468;SDS011;44257;44.804;10.220;2023-06-14T02:28:23;10.38;;;6.60;;
58468;SDS011;44257;44.804;10.220;2023-06-14T02:30:49;11.90;;;7.00;;
58468;SDS011;44257;44.804;10.220;2023-06-14T02:33:15;12.68;;;7.47;;
58468;SDS011;44257;44.804;10.220;2023-06-14T02:35:42;10.98;;;7.45;;
58468;SDS011;44257;44.804;10.220;2023-06-14T02:38:08;13.88;;;8.20;;
58468;SDS011;44257;44.804;10.220;2023-06-14T02:40:34;12.32;;;8.32;;
58468;SDS011;44257;44.804;10.220;2023-06-14T02:43:00;13.48;;;7.60;;
58468;SDS011;44257;44.804;10.220;2023-06-14T02:45:27;13.15;;;8.50;;
58468;SDS011;44257;44.804;10.220;2023-06-14T02:47:53;14.32;;;8.52;;
58468;SDS011;44257;44.804;10.220;2023-06-14T02:50:20;12.25;;;8.27;;
58468;SDS011;44257;44.804;10.220;2023-06-14T02:52:46;11.02;;;8.07;;
58468;SDS011;44257;44.804;10.220;2023-06-14T02:55:13;11.57;;;7.38;;
58468;SDS011;44257;44.804;10.220;2023-06-14T02:57:39;13.80;;;7.85;;
58468;SDS011;44257;44.804;10.220;2023-06-14T03:00:07;12.95;;;8.35;;
58468;SDS011;44257;44.804;10.220;2023-06-14T03:02:35;11.05;;;7.80;;
58468;SDS011;44257;44.804;10.220;2023-06-14T03:05:01;10.93;;;8.07;;
58468;SDS011;44257;44.804;10.220;2023-06-14T03:07:29;9.75;;;6.45;;
58468;SDS011;44257;44.804;10.220;2023-06-14T03:09:56;11.07;;;7.53;;
58468;SDS011;44257;44.804;10.220;2023-06-14T03:12:22;12.88;;;7.82;;
58468;SDS011;44257;44.804;10.220;2023-06-14T03:14:49;12.07;;;7.07;;
58468;SDS011;44257;44.804;10.220;2023-06-14T03:17:18;12.15;;;7.30;;
58468;SDS011;44257;44.804;10.220;2023-06-14T03:19:44;11.10;;;6.95;;
58468;SDS011;44257;44.804;10.220;2023-06-14T03:22:11;11.70;;;7.15;;
58468;SDS011;44257;44.804;10.220;2023-06-14T03:24:39;11.60;;;6.93;;
58468;SDS011;44257;44.804;10.220;2023-06-14T03:27:09;12.15;;;7.38;;
58468;SDS011;44257;44.804;10.220;2023-06-14T03:29:37;9.68;;;6.30;;
58468;SDS011;44257;44.804;10.220;2023-06-14T03:32:03;14.18;;;6.63;;
58468;SDS011;44257;44.804;10.220;2023-06-14T03:34:35;12.40;;;6.85;;
58468;SDS011;44257;44.804;10.220;2023-06-14T03:37:03;11.18;;;7.50;;
58468;SDS011;44257;44.804;10.220;2023-06-14T03:39:30;9.27;;;6.45;;
58468;SDS011;44257;44.804;10.220;2023-06-14T03:41:56;11.93;;;8.00;;
58468;SDS011;44257;44.804;10.220;2023-06-14T03:44:22;12.38;;;6.38;;
58468;SDS011;44257;44.804;10.220;2023-06-14T03:46:49;12.63;;;7.25;;
58468;SDS011;44257;44.804;10.220;2023-06-14T03:49:15;10.52;;;7.00;;
58468;SDS011;44257;44.804;10.220;2023-06-14T03:51:43;11.05;;;6.85;;
58468;SDS011;44257;44.804;10.220;2023-06-14T03:54:11;11.00;;;7.45;;
58468;SDS011;44257;44.804;10.220;2023-06-14T03:56:37;9.40;;;6.82;;
58468;SDS011;44257;44.804;10.220;2023-06-14T03:59:04;10.77;;;6.72;;
58468;SDS011;44257;44.804;10.220;2023-06-14T04:01:30;9.52;;;6.85;;
58468;SDS011;44257;44.804;10.220;2023-06-14T04:03:58;14.82;;;7.35;;
58468;SDS011;44257;44.804;10.220;2023-06-14T04:06:25;9.40;;;6.90;;
58468;SDS011;44257;44.804;10.220;2023-06-14T04:08:58;9.55;;;7.03;;
58468;SDS011;44257;44.804;10.220;2023-06-14T04:11:28;10.90;;;6.65;;
58468;SDS011;44257;44.804;10.220;2023-06-14T04:13:55;8.38;;;6.63;;
58468;SDS011;44257;44.804;10.220;2023-06-14T04:16:22;9.38;;;6.40;;
58468;SDS011;44257;44.804;10.220;2023-06-14T04:18:48;13.20;;;7.13;;
58468;SDS011;44257;44.804;10.220;2023-06-14T04:21:17;10.60;;;6.32;;
58468;SDS011;44257;44.804;10.220;2023-06-14T04:23:44;12.35;;;7.00;;
58468;SDS011;44257;44.804;10.220;2023-06-14T04:26:12;10.02;;;6.85;;
58468;SDS011;44257;44.804;10.220;2023-06-14T04:28:38;9.75;;;6.18;;
58468;SDS011;44257;44.804;10.220;2023-06-14T04:31:06;8.73;;;6.00;;
58468;SDS011;44257;44.804;10.220;2023-06-14T04:33:37;9.88;;;5.68;;
58468;SDS011;44257;44.804;10.220;2023-06-14T04:36:12;11.23;;;5.72;;
58468;SDS011;44257;44.804;10.220;2023-06-14T04:38:38;7.93;;;5.38;;
58468;SDS011;44257;44.804;10.220;2023-06-14T04:41:05;8.40;;;5.05;;
58468;SDS011;44257;44.804;10.220;2023-06-14T04:43:31;6.75;;;5.28;;
58468;SDS011;44257;44.804;10.220;2023-06-14T04:46:04;10.10;;;5.57;;
58468;SDS011;44257;44.804;10.220;2023-06-14T04:48:31;9.30;;;5.28;;
58468;SDS011;44257;44.804;10.220;2023-06-14T04:50:57;9.05;;;5.75;;
58468;SDS011;44257;44.804;10.220;2023-06-14T04:53:23;9.50;;;5.65;;
58468;SDS011;44257;44.804;10.220;2023-06-14T04:55:52;6.10;;;5.05;;
58468;SDS011;44257;44.804;10.220;2023-06-14T04:58:19;7.72;;;5.80;;
58468;SDS011;44257;44.804;10.220;2023-06-14T05:00:46;8.38;;;5.70;;
58468;SDS011;44257;44.804;10.220;2023-06-14T05:03:11;7.00;;;4.90;;
58468;SDS011;44257;44.804;10.220;2023-06-14T05:05:41;8.20;;;5.22;;
58468;SDS011;44257;44.804;10.220;2023-06-14T05:08:07;6.93;;;5.20;;
58468;SDS011;44257;44.804;10.220;2023-06-14T05:10:34;9.52;;;5.30;;
58468;SDS011;44257;44.804;10.220;2023-06-14T05:13:01;6.30;;;4.63;;
58468;SDS011;44257;44.804;10.220;2023-06-14T05:15:28;8.52;;;5.25;;
58468;SDS011;44257;44.804;10.220;2023-06-14T05:17:54;7.68;;;5.00;;
58468;SDS011;44257;44.804;10.220;2023-06-14T05:20:24;7.88;;;5.18;;
58468;SDS011;44257;44.804;10.220;2023-06-14T05:22:51;7.38;;;5.15;;
58468;SDS011;44257;44.804;10.220;2023-06-14T05:25:22;9.10;;;5.07;;
58468;SDS011;44257;44.804;10.220;2023-06-14T05:27:48;8.38;;;5.22;;
58468;SDS011;44257;44.804;10.220;2023-06-14T05:30:14;8.15;;;4.82;;
58468;SDS011;44257;44.804;10.220;2023-06-14T05:32:41;8.27;;;4.82;;
58468;SDS011;44257;44.804;10.220;2023-06-14T05:35:07;13.10;;;5.20;;
58468;SDS011;44257;44.804;10.220;2023-06-14T05:37:33;9.68;;;5.43;;
58468;SDS011;44257;44.804;10.220;2023-06-14T05:39:59;8.32;;;5.60;;
58468;SDS011;44257;44.804;10.220;2023-06-14T05:42:25;10.00;;;5.65;;
58468;SDS011;44257;44.804;10.220;2023-06-14T05:44:51;10.75;;;6.53;;
58468;SDS011;44257;44.804;10.220;2023-06-14T05:47:16;9.93;;;6.22;;
58468;SDS011;44257;44.804;10.220;2023-06-14T05:49:42;10.32;;;7.00;;
58468;SDS011;44257;44.804;10.220;2023-06-14T05:52:08;13.88;;;7.05;;
58468;SDS011;44257;44.804;10.220;2023-06-14T05:54:35;14.73;;;7.60;;
58468;SDS011;44257;44.804;10.220;2023-06-14T05:57:01;17.58;;;7.70;;
58468;SDS011;44257;44.804;10.220;2023-06-14T05:59:28;11.18;;;8.27;;
58468;SDS011;44257;44.804;10.220;2023-06-14T06:01:54;13.00;;;9.65;;
58468;SDS011;44257;44.804;10.220;2023-06-14T06:04:20;13.30;;;9.18;;
58468;SDS011;44257;44.804;10.220;2023-06-14T06:06:46;17.75;;;11.43;;
58468;SDS011;44257;44.804;10.220;2023-06-14T06:09:12;15.38;;;10.63;;
58468;SDS011;44257;44.804;10.220;2023-06-14T06:11:39;15.10;;;11.13;;
58468;SDS011;44257;44.804;10.220;2023-06-14T06:14:06;15.25;;;9.75;;
58468;SDS011;44257;44.804;10.220;2023-06-14T06:16:31;15.00;;;9.80;;
58468;SDS011;44257;44.804;10.220;2023-06-14T06:18:58;15.88;;;10.13;;
58468;SDS011;44257;44.804;10.220;2023-06-14T06:21:24;12.80;;;9.55;;
58468;SDS011;44257;44.804;10.220;2023-06-14T06:23:50;14.13;;;8.98;;
58468;SDS011;44257;44.804;10.220;2023-06-14T06:26:16;17.10;;;10.10;;
58468;SDS011;44257;44.804;10.220;2023-06-14T06:28:42;13.63;;;10.55;;
58468;SDS011;44257;44.804;10.220;2023-06-14T06:31:08;17.23;;;10.43;;
58468;SDS011;44257;44.804;10.220;2023-06-14T06:33:35;12.70;;;9.15;;
58468;SDS011;44257;44.804;10.220;2023-06-14T06:36:00;13.25;;;9.63;;
58468;SDS011;44257;44.804;10.220;2023-06-14T06:38:26;12.98;;;9.57;;
58468;SDS011;44257;44.804;10.220;2023-06-14T06:40:52;15.20;;;9.68;;
58468;SDS011;44257;44.804;10.220;2023-06-14T06:43:19;16.75;;;10.32;;
58468;SDS011;44257;44.804;10.220;2023-06-14T06:45:47;12.95;;;9.77;;
58468;SDS011;44257;44.804;10.220;2023-06-14T06:48:13;16.05;;;9.52;;
58468;SDS011;44257;44.804;10.220;2023-06-14T06:50:39;11.20;;;8.60;;
58468;SDS011;44257;44.804;10.220;2023-06-14T06:53:05;9.90;;;8.02;;
58468;SDS011;44257;44.804;10.220;2023-06-14T06:55:32;12.32;;;8.93;;
58468;SDS011;44257;44.804;10.220;2023-06-14T06:57:57;14.10;;;8.50;;
58468;SDS011;44257;44.804;10.220;2023-06-14T07:00:25;9.80;;;8.07;;
58468;SDS011;44257;44.804;10.220;2023-06-14T07:02:51;15.10;;;8.60;;
58468;SDS011;44257;44.804;10.220;2023-06-14T07:05:17;10.60;;;7.95;;
58468;SDS011;44257;44.804;10.220;2023-06-14T07:07:43;12.90;;;8.13;;
58468;SDS011;44257;44.804;10.220;2023-06-14T07:10:09;12.32;;;8.50;;
58468;SDS011;44257;44.804;10.220;2023-06-14T07:12:35;12.15;;;8.95;;
58468;SDS011;44257;44.804;10.220;2023-06-14T07:15:05;11.18;;;8.60;;
58468;SDS011;44257;44.804;10.220;2023-06-14T07:17:34;11.95;;;9.23;;
58468;SDS011;44257;44.804;10.220;2023-06-14T07:20:00;12.52;;;9.48;;
58468;SDS011;44257;44.804;10.220;2023-06-14T07:22:37;14.32;;;9.63;;
58468;SDS011;44257;44.804;10.220;2023-06-14T07:25:06;14.68;;;9.20;;
58468;SDS011;44257;44.804;10.220;2023-06-14T07:27:33;13.05;;;8.68;;
58468;SDS011;44257;44.804;10.220;2023-06-14T07:29:59;13.98;;;9.18;;
58468;SDS011;44257;44.804;10.220;2023-06-14T07:32:27;12.43;;;8.25;;
58468;SDS011;44257;44.804;10.220;2023-06-14T07:34:53;13.63;;;9.52;;
58468;SDS011;44257;44.804;10.220;2023-06-14T07:37:19;11.27;;;8.55;;
58468;SDS011;44257;44.804;10.220;2023-06-14T07:39:44;11.45;;;8.73;;
58468;SDS011;44257;44.804;10.220;2023-06-14T07:42:10;10.88;;;8.55;;
58468;SDS011;44257;44.804;10.220;2023-06-14T07:44:36;16.55;;;8.75;;
58468;SDS011;44257;44.804;10.220;2023-06-14T07:47:02;13.50;;;8.80;;
58468;SDS011;44257;44.804;10.220;2023-06-14T07:49:28;12.07;;;9.23;;
58468;SDS011;44257;44.804;10.220;2023-06-14T07:51:53;13.05;;;10.07;;
58468;SDS011;44257;44.804;10.220;2023-06-14T07:54:20;14.25;;;10.05;;
58468;SDS011;44257;44.804;10.220;2023-06-14T07:56:50;17.13;;;11.05;;
58468;SDS011;44257;44.804;10.220;2023-06-14T07:59:16;11.00;;;8.30;;
58468;SDS011;44257;44.804;10.220;2023-06-14T08:01:41;13.65;;;9.27;;
58468;SDS011;44257;44.804;10.220;2023-06-14T08:04:12;16.65;;;11.07;;
58468;SDS011;44257;44.804;10.220;2023-06-14T08:06:39;15.85;;;11.10;;
58468;SDS011;44257;44.804;10.220;2023-06-14T08:09:09;14.32;;;11.65;;
58468;SDS011;44257;44.804;10.220;2023-06-14T08:11:36;17.98;;;12.70;;
58468;SDS011;44257;44.804;10.220;2023-06-14T08:14:02;17.33;;;12.80;;
58468;SDS011;44257;44.804;10.220;2023-06-14T08:16:27;15.80;;;11.88;;
58468;SDS011;44257;44.804;10.220;2023-06-14T08:18:54;16.60;;;12.45;;
58468;SDS011;44257;44.804;10.220;2023-06-14T08:21:20;20.88;;;13.80;;
58468;SDS011;44257;44.804;10.220;2023-06-14T08:23:46;17.70;;;14.43;;
58468;SDS011;44257;44.804;10.220;2023-06-14T08:26:12;18.30;;;14.65;;
58468;SDS011;44257;44.804;10.220;2023-06-14T08:28:38;18.33;;;16.15;;
58468;SDS011;44257;44.804;10.220;2023-06-14T08:31:04;19.95;;;16.73;;
58468;SDS011;44257;44.804;10.220;2023-06-14T08:33:30;19.38;;;16.63;;
58468;SDS011;44257;44.804;10.220;2023-06-14T08:35:58;20.42;;;16.08;;
58468;SDS011;44257;44.804;10.220;2023-06-14T08:38:24;21.48;;;16.77;;
58468;SDS011;44257;44.804;10.220;2023-06-14T08:40:50;21.25;;;17.23;;
58468;SDS011;44257;44.804;10.220;2023-06-14T08:43:17;21.52;;;18.40;;
58468;SDS011;44257;44.804;10.220;2023-06-14T08:45:45;19.55;;;17.45;;
58468;SDS011;44257;44.804;10.220;2023-06-14T08:48:13;21.88;;;18.67;;
58468;SDS011;44257;44.804;10.220;2023-06-14T08:50:42;21.13;;;18.50;;
58468;SDS011;44257;44.804;10.220;2023-06-14T08:53:11;23.75;;;18.13;;
58468;SDS011;44257;44.804;10.220;2023-06-14T08:55:41;20.85;;;18.65;;
58468;SDS011;44257;44.804;10.220;2023-06-14T08:58:08;22.30;;;18.20;;
58468;SDS011;44257;44.804;10.220;2023-06-14T09:00:34;22.50;;;18.50;;
58468;SDS011;44257;44.804;10.220;2023-06-14T09:03:03;21.77;;;19.42;;
58468;SDS011;44257;44.804;10.220;2023-06-14T09:05:30;23.73;;;19.52;;
58468;SDS011;44257;44.804;10.220;2023-06-14T09:07:56;22.52;;;18.65;;
58468;SDS011;44257;44.804;10.220;2023-06-14T09:10:26;20.50;;;18.30;;
58468;SDS011;44257;44.804;10.220;2023-06-14T09:12:53;22.67;;;19.15;;
58468;SDS011;44257;44.804;10.220;2023-06-14T09:15:19;20.70;;;18.45;;
58468;SDS011;44257;44.804;10.220;2023-06-14T09:17:45;26.35;;;21.23;;
58468;SDS011;44257;44.804;10.220;2023-06-14T09:20:11;23.20;;;20.00;;
58468;SDS011;44257;44.804;10.220;2023-06-14T09:22:44;21.88;;;19.58;;
58468;SDS011;44257;44.804;10.220;2023-06-14T09:25:10;22.02;;;18.42;;
58468;SDS011;44257;44.804;10.220;2023-06-14T09:27:38;21.40;;;19.17;;
58468;SDS011;44257;44.804;10.220;2023-06-14T09:30:10;22.20;;;19.77;;
58468;SDS011;44257;44.804;10.220;2023-06-14T09:32:39;18.98;;;17.02;;
58468;SDS011;44257;44.804;10.220;2023-06-14T09:35:08;20.10;;;15.32;;
58468;SDS011;44257;44.804;10.220;2023-06-14T09:37:34;17.52;;;14.85;;
58468;SDS011;44257;44.804;10.220;2023-06-14T09:40:03;17.63;;;15.10;;
58468;SDS011;44257;44.804;10.220;2023-06-14T09:42:32;15.35;;;12.80;;
58468;SDS011;44257;44.804;10.220;2023-06-14T09:45:00;17.95;;;14.43;;
58468;SDS011;44257;44.804;10.220;2023-06-14T09:47:28;15.20;;;13.65;;
58468;SDS011;44257;44.804;10.220;2023-06-14T09:49:53;20.13;;;16.52;;
58468;SDS011;44257;44.804;10.220;2023-06-14T09:52:20;17.15;;;15.32;;
58468;SDS011;44257;44.804;10.220;2023-06-14T09:54:48;17.63;;;15.77;;
58468;SDS011;44257;44.804;10.220;2023-06-14T09:57:15;16.23;;;14.50;;
58468;SDS011;44257;44.804;10.220;2023-06-14T09:59:45;16.33;;;13.15;;
58468;SDS011;44257;44.804;10.220;2023-06-14T10:07:36;18.65;;;16.65;;
58468;SDS011;44257;44.804;10.220;2023-06-14T10:10:07;19.42;;;17.42;;
58468;SDS011;44257;44.804;10.220;2023-06-14T10:12:34;21.90;;;18.98;;
58468;SDS011;44257;44.804;10.220;2023-06-14T10:14:59;21.75;;;18.95;;
58468;SDS011;44257;44.804;10.220;2023-06-14T10:17:47;24.17;;;18.92;;
58468;SDS011;44257;44.804;10.220;2023-06-14T10:23:16;21.40;;;17.60;;
58468;SDS011;44257;44.804;10.220;2023-06-14T10:25:44;21.85;;;18.25;;
58468;SDS011;44257;44.804;10.220;2023-06-14T10:33:33;22.23;;;17.88;;
58468;SDS011;44257;44.804;10.220;2023-06-14T10:36:10;20.55;;;18.38;;
58468;SDS011;44257;44.804;10.220;2023-06-14T10:46:39;20.02;;;17.92;;
58468;SDS011;44257;44.804;10.220;2023-06-14T10:49:05;21.83;;;18.08;;
58468;SDS011;44257;44.804;10.220;2023-06-14T10:51:38;19.90;;;17.80;;
58468;SDS011;44257;44.804;10.220;2023-06-14T10:54:20;19.67;;;16.83;;
58468;SDS011;44257;44.804;10.220;2023-06-14T10:56:47;18.42;;;15.73;;
58468;SDS011;44257;44.804;10.220;2023-06-14T10:59:14;18.48;;;16.17;;
58468;SDS011;44257;44.804;10.220;2023-06-14T11:02:34;19.67;;;15.40;;
58468;SDS011;44257;44.804;10.220;2023-06-14T11:04:52;17.58;;;14.20;;
58468;SDS011;44257;44.804;10.220;2023-06-14T11:12:47;19.35;;;14.95;;
58468;SDS011;44257;44.804;10.220;2023-06-14T11:15:13;17.42;;;14.20;;
58468;SDS011;44257;44.804;10.220;2023-06-14T11:17:49;17.60;;;14.63;;
58468;SDS011;44257;44.804;10.220;2023-06-14T11:20:24;19.10;;;15.88;;
58468;SDS011;44257;44.804;10.220;2023-06-14T11:22:51;18.73;;;15.25;;
58468;SDS011;44257;44.804;10.220;2023-06-14T11:25:18;17.30;;;14.15;;
58468;SDS011;44257;44.804;10.220;2023-06-14T11:27:44;17.90;;;13.55;;
58468;SDS011;44257;44.804;10.220;2023-06-14T11:30:11;14.45;;;12.18;;
58468;SDS011;44257;44.804;10.220;2023-06-14T11:32:38;12.82;;;11.43;;
58468;SDS011;44257;44.804;10.220;2023-06-14T11:35:04;12.38;;;11.07;;
58468;SDS011;44257;44.804;10.220;2023-06-14T11:37:31;11.77;;;10.63;;
58468;SDS011;44257;44.804;10.220;2023-06-14T11:40:01;14.50;;;11.57;;
58468;SDS011;44257;44.804;10.220;2023-06-14T11:42:28;12.80;;;11.45;;
58468;SDS011;44257;44.804;10.220;2023-06-14T11:44:55;12.88;;;11.10;;
58468;SDS011;44257;44.804;10.220;2023-06-14T11:47:21;14.55;;;10.73;;
58468;SDS011;44257;44.804;10.220;2023-06-14T11:49:47;17.33;;;12.40;;
58468;SDS011;44257;44.804;10.220;2023-06-14T11:52:14;13.05;;;10.50;;
58468;SDS011;44257;44.804;10.220;2023-06-14T11:54:40;13.70;;;10.73;;
58468;SDS011;44257;44.804;10.220;2023-06-14T11:57:09;9.48;;;7.32;;
58468;SDS011;44257;44.804;10.220;2023-06-14T11:59:39;9.45;;;8.45;;
58468;SDS011;44257;44.804;10.220;2023-06-14T12:02:06;10.27;;;8.40;;
58468;SDS011;44257;44.804;10.220;2023-06-14T12:04:33;9.85;;;8.85;;
58468;SDS011;44257;44.804;10.220;2023-06-14T12:07:11;11.68;;;9.60;;
58468;SDS011;44257;44.804;10.220;2023-06-14T12:10:25;11.23;;;9.15;;
58468;SDS011;44257;44.804;10.220;2023-06-14T12:12:26;10.90;;;8.35;;
58468;SDS011;44257;44.804;10.220;2023-06-14T12:14:52;9.43;;;8.48;;
58468;SDS011;44257;44.804;10.220;2023-06-14T12:17:18;9.38;;;7.78;;
58468;SDS011;44257;44.804;10.220;2023-06-14T12:19:45;9.82;;;7.85;;
58468;SDS011;44257;44.804;10.220;2023-06-14T12:22:12;9.32;;;7.47;;
58468;SDS011;44257;44.804;10.220;2023-06-14T12:24:39;9.18;;;7.88;;
58468;SDS011;44257;44.804;10.220;2023-06-14T12:27:07;9.57;;;7.72;;
58468;SDS011;44257;44.804;10.220;2023-06-14T12:29:33;8.80;;;7.10;;
58468;SDS011;44257;44.804;10.220;2023-06-14T12:32:00;7.97;;;7.18;;
58468;SDS011;44257;44.804;10.220;2023-06-14T12:34:28;6.13;;;5.53;;
58468;SDS011;44257;44.804;10.220;2023-06-14T12:36:56;8.80;;;6.00;;
58468;SDS011;44257;44.804;10.220;2023-06-14T12:39:23;7.57;;;6.28;;
58468;SDS011;44257;44.804;10.220;2023-06-14T12:41:49;8.90;;;6.68;;
58468;SDS011;44257;44.804;10.220;2023-06-14T12:44:15;7.95;;;6.68;;
58468;SDS011;44257;44.804;10.220;2023-06-14T12:46:41;6.90;;;6.00;;
58468;SDS011;44257;44.804;10.220;2023-06-14T12:49:11;9.35;;;6.43;;
58468;SDS011;44257;44.804;10.220;2023-06-14T12:51:38;7.28;;;5.57;;
58468;SDS011;44257;44.804;10.220;2023-06-14T12:54:05;5.22;;;4.72;;
58468;SDS011;44257;44.804;10.220;2023-06-14T12:56:31;5.68;;;5.05;;
58468;SDS011;44257;44.804;10.220;2023-06-14T12:58:57;5.80;;;4.65;;
58468;SDS011;44257;44.804;10.220;2023-06-14T13:01:24;6.05;;;4.68;;
58468;SDS011;44257;44.804;10.220;2023-06-14T13:03:50;5.85;;;5.25;;
58468;SDS011;44257;44.804;10.220;2023-06-14T13:06:20;7.43;;;4.55;;
58468;SDS011;44257;44.804;10.220;2023-06-14T13:08:49;5.63;;;5.07;;
58468;SDS011;44257;44.804;10.220;2023-06-14T13:11:15;5.38;;;4.70;;
58468;SDS011;44257;44.804;10.220;2023-06-14T13:13:41;6.30;;;5.03;;
58468;SDS011;44257;44.804;10.220;2023-06-14T13:16:07;5.30;;;4.65;;
58468;SDS011;44257;44.804;10.220;2023-06-14T13:18:33;6.68;;;5.20;;
58468;SDS011;44257;44.804;10.220;2023-06-14T13:20:59;5.43;;;4.50;;
58468;SDS011;44257;44.804;10.220;2023-06-14T13:23:26;6.15;;;4.80;;
58468;SDS011;44257;44.804;10.220;2023-06-14T13:25:52;5.65;;;4.70;;
58468;SDS011;44257;44.804;10.220;2023-06-14T13:28:18;6.90;;;5.03;;
58468;SDS011;44257;44.804;10.220;2023-06-14T13:30:44;7.45;;;5.78;;
58468;SDS011;44257;44.804;10.220;2023-06-14T13:33:10;5.65;;;4.90;;
58468;SDS011;44257;44.804;10.220;2023-06-14T13:35:36;6.05;;;4.72;;
58468;SDS011;44257;44.804;10.220;2023-06-14T13:38:02;6.55;;;4.53;;
58468;SDS011;44257;44.804;10.220;2023-06-14T13:40:28;5.45;;;4.50;;
58468;SDS011;44257;44.804;10.220;2023-06-14T13:42:53;5.25;;;4.72;;
58468;SDS011;44257;44.804;10.220;2023-06-14T13:45:19;6.63;;;5.47;;
58468;SDS011;44257;44.804;10.220;2023-06-14T13:47:45;5.88;;;4.85;;
58468;SDS011;44257;44.804;10.220;2023-06-14T13:50:13;5.45;;;4.90;;
58468;SDS011;44257;44.804;10.220;2023-06-14T13:52:39;5.82;;;4.95;;
58468;SDS011;44257;44.804;10.220;2023-06-14T13:55:05;4.97;;;3.83;;
58468;SDS011;44257;44.804;10.220;2023-06-14T13:57:31;5.20;;;4.13;;
58468;SDS011;44257;44.804;10.220;2023-06-14T13:59:57;6.32;;;4.32;;
58468;SDS011;44257;44.804;10.220;2023-06-14T14:02:29;6.18;;;4.10;;
58468;SDS011;44257;44.804;10.220;2023-06-14T14:04:55;5.18;;;4.05;;
58468;SDS011;44257;44.804;10.220;2023-06-14T14:07:22;5.78;;;4.68;;
58468;SDS011;44257;44.804;10.220;2023-06-14T14:09:48;6.05;;;3.85;;
58468;SDS011;44257;44.804;10.220;2023-06-14T14:12:14;4.95;;;4.28;;
58468;SDS011;44257;44.804;10.220;2023-06-14T14:14:40;6.72;;;5.00;;
58468;SDS011;44257;44.804;10.220;2023-06-14T14:17:06;5.40;;;4.10;;
58468;SDS011;44257;44.804;10.220;2023-06-14T14:19:32;5.20;;;3.70;;
58468;SDS011;44257;44.804;10.220;2023-06-14T14:21:58;4.63;;;3.60;;
58468;SDS011;44257;44.804;10.220;2023-06-14T14:24:24;5.13;;;4.00;;
58468;SDS011;44257;44.804;10.220;2023-06-14T14:26:51;6.90;;;4.32;;
58468;SDS011;44257;44.804;10.220;2023-06-14T14:29:18;7.50;;;4.20;;
58468;SDS011;44257;44.804;10.220;2023-06-14T14:31:45;6.38;;;3.72;;
58468;SDS011;44257;44.804;10.220;2023-06-14T14:34:11;6.82;;;4.05;;
58468;SDS011;44257;44.804;10.220;2023-06-14T14:36:37;6.35;;;5.35;;
58468;SDS011;44257;44.804;10.220;2023-06-14T14:39:06;5.20;;;4.70;;
58468;SDS011;44257;44.804;10.220;2023-06-14T14:41:32;5.88;;;4.85;;
58468;SDS011;44257;44.804;10.220;2023-06-14T14:43:58;5.45;;;4.40;;
58468;SDS011;44257;44.804;10.220;2023-06-14T14:46:26;6.15;;;4.60;;
58468;SDS011;44257;44.804;10.220;2023-06-14T14:48:53;5.20;;;4.57;;
58468;SDS011;44257;44.804;10.220;2023-06-14T14:51:19;6.10;;;4.18;;
58468;SDS011;44257;44.804;10.220;2023-06-14T14:53:44;4.78;;;4.03;;